sensor_id;sensor_type;location;lat;lon;timestamp;temperature;humidity
38488;DHT22;57384;51.986;4.458;2023-07-31T00:00:36;20.00;69.90
38488;DHT22;57384;51.986;4.458;2023-07-31T00:03:03;20.00;69.90
38488;DHT22;57384;51.986;4.458;2023-07-31T00:05:30;20.00;69.80
38488;DHT22;57384;51.986;4.458;2023-07-31T00:07:57;20.00;69.80
38488;DHT22;57384;51.986;4.458;2023-07-31T00:10:25;20.00;69.90
38488;DHT22;57384;51.986;4.458;2023-07-31T00:12:52;20.00;70.10
38488;DHT22;57384;51.986;4.458;2023-07-31T00:15:19;19.90;70.10
38488;DHT22;57384;51.986;4.458;2023-07-31T00:17:47;20.00;70.10
38488;DHT22;57384;51.986;4.458;2023-07-31T00:20:15;20.00;70.30
38488;DHT22;57384;51.986;4.458;2023-07-31T00:22:43;20.00;70.30
38488;DHT22;57384;51.986;4.458;2023-07-31T00:25:10;20.00;70.40
38488;DHT22;57384;51.986;4.458;2023-07-31T00:27:37;19.90;70.50
38488;DHT22;57384;51.986;4.458;2023-07-31T00:30:08;20.00;70.60
38488;DHT22;57384;51.986;4.458;2023-07-31T00:32:35;20.00;70.50
38488;DHT22;57384;51.986;4.458;2023-07-31T00:35:03;19.90;70.50
38488;DHT22;57384;51.986;4.458;2023-07-31T00:37:30;20.00;70.60
38488;DHT22;57384;51.986;4.458;2023-07-31T00:39:57;19.90;70.50
38488;DHT22;57384;51.986;4.458;2023-07-31T00:42:31;19.90;70.50
38488;DHT22;57384;51.986;4.458;2023-07-31T00:44:57;19.90;70.60
38488;DHT22;57384;51.986;4.458;2023-07-31T00:47:25;19.90;70.50
38488;DHT22;57384;51.986;4.458;2023-07-31T00:49:54;19.90;70.70
38488;DHT22;57384;51.986;4.458;2023-07-31T00:52:23;19.90;70.70
38488;DHT22;57384;51.986;4.458;2023-07-31T00:54:50;19.90;70.70
38488;DHT22;57384;51.986;4.458;2023-07-31T00:57:17;19.90;70.70
38488;DHT22;57384;51.986;4.458;2023-07-31T00:59:44;19.90;70.70
38488;DHT22;57384;51.986;4.458;2023-07-31T01:02:10;19.90;70.70
38488;DHT22;57384;51.986;4.458;2023-07-31T01:04:37;19.90;70.70
38488;DHT22;57384;51.986;4.458;2023-07-31T01:07:11;19.90;70.70
38488;DHT22;57384;51.986;4.458;2023-07-31T01:12:32;19.90;71.00
38488;DHT22;57384;51.986;4.458;2023-07-31T01:17:29;19.90;70.90
38488;DHT22;57384;51.986;4.458;2023-07-31T01:20:00;19.90;70.90
38488;DHT22;57384;51.986;4.458;2023-07-31T01:28:17;19.80;71.00
38488;DHT22;57384;51.986;4.458;2023-07-31T01:30:48;19.80;71.10
38488;DHT22;57384;51.986;4.458;2023-07-31T01:33:18;19.80;71.10
38488;DHT22;57384;51.986;4.458;2023-07-31T01:35:54;19.80;71.30
38488;DHT22;57384;51.986;4.458;2023-07-31T01:38:23;19.80;71.20
38488;DHT22;57384;51.986;4.458;2023-07-31T01:40:57;19.80;71.20
38488;DHT22;57384;51.986;4.458;2023-07-31T01:43:23;19.80;71.30
38488;DHT22;57384;51.986;4.458;2023-07-31T01:45:50;19.70;71.20
38488;DHT22;57384;51.986;4.458;2023-07-31T01:48:17;19.80;71.30
38488;DHT22;57384;51.986;4.458;2023-07-31T01:50:45;19.80;71.30
38488;DHT22;57384;51.986;4.458;2023-07-31T01:53:12;19.70;71.30
38488;DHT22;57384;51.986;4.458;2023-07-31T01:55:39;19.70;71.20
38488;DHT22;57384;51.986;4.458;2023-07-31T01:58:07;19.70;71.20
38488;DHT22;57384;51.986;4.458;2023-07-31T02:00:34;19.70;71.30
38488;DHT22;57384;51.986;4.458;2023-07-31T02:03:01;19.80;71.40
38488;DHT22;57384;51.986;4.458;2023-07-31T02:05:28;19.70;71.40
38488;DHT22;57384;51.986;4.458;2023-07-31T02:07:54;19.70;71.40
38488;DHT22;57384;51.986;4.458;2023-07-31T02:10:23;19.70;71.50
38488;DHT22;57384;51.986;4.458;2023-07-31T02:12:50;19.70;71.50
38488;DHT22;57384;51.986;4.458;2023-07-31T02:15:18;19.70;71.50
38488;DHT22;57384;51.986;4.458;2023-07-31T02:17:50;19.70;71.40
38488;DHT22;57384;51.986;4.458;2023-07-31T02:20:24;19.70;71.50
38488;DHT22;57384;51.986;4.458;2023-07-31T02:22:52;19.60;71.50
38488;DHT22;57384;51.986;4.458;2023-07-31T02:25:19;19.70;71.50
38488;DHT22;57384;51.986;4.458;2023-07-31T02:27:46;19.60;71.40
38488;DHT22;57384;51.986;4.458;2023-07-31T02:30:12;19.70;71.40
38488;DHT22;57384;51.986;4.458;2023-07-31T02:32:42;19.60;71.40
38488;DHT22;57384;51.986;4.458;2023-07-31T02:35:09;19.60;71.40
38488;DHT22;57384;51.986;4.458;2023-07-31T02:37:38;19.60;71.30
38488;DHT22;57384;51.986;4.458;2023-07-31T02:40:05;19.60;71.40
38488;DHT22;57384;51.986;4.458;2023-07-31T02:42:32;19.60;71.40
38488;DHT22;57384;51.986;4.458;2023-07-31T02:45:00;19.70;71.30
38488;DHT22;57384;51.986;4.458;2023-07-31T02:47:27;19.60;71.30
38488;DHT22;57384;51.986;4.458;2023-07-31T02:49:55;19.60;71.30
38488;DHT22;57384;51.986;4.458;2023-07-31T02:52:22;19.60;71.40
38488;DHT22;57384;51.986;4.458;2023-07-31T02:54:49;19.50;71.20
38488;DHT22;57384;51.986;4.458;2023-07-31T02:57:17;19.60;71.30
38488;DHT22;57384;51.986;4.458;2023-07-31T02:59:45;19.60;71.40
38488;DHT22;57384;51.986;4.458;2023-07-31T03:02:12;19.50;71.30
38488;DHT22;57384;51.986;4.458;2023-07-31T03:04:40;19.50;71.30
38488;DHT22;57384;51.986;4.458;2023-07-31T03:07:07;19.50;71.30
38488;DHT22;57384;51.986;4.458;2023-07-31T03:09:34;19.50;71.30
38488;DHT22;57384;51.986;4.458;2023-07-31T03:12:01;19.50;71.30
38488;DHT22;57384;51.986;4.458;2023-07-31T03:14:28;19.50;71.50
38488;DHT22;57384;51.986;4.458;2023-07-31T03:16:55;19.50;71.40
38488;DHT22;57384;51.986;4.458;2023-07-31T03:19:22;19.50;71.50
38488;DHT22;57384;51.986;4.458;2023-07-31T03:21:59;19.50;71.60
38488;DHT22;57384;51.986;4.458;2023-07-31T03:24:28;19.40;71.50
38488;DHT22;57384;51.986;4.458;2023-07-31T03:26:55;19.40;71.60
38488;DHT22;57384;51.986;4.458;2023-07-31T03:29:22;19.40;71.60
38488;DHT22;57384;51.986;4.458;2023-07-31T03:31:51;19.50;72.30
38488;DHT22;57384;51.986;4.458;2023-07-31T03:34:17;19.40;71.70
38488;DHT22;57384;51.986;4.458;2023-07-31T03:36:44;19.40;71.60
38488;DHT22;57384;51.986;4.458;2023-07-31T03:39:12;19.50;71.80
38488;DHT22;57384;51.986;4.458;2023-07-31T03:41:40;19.40;71.90
38488;DHT22;57384;51.986;4.458;2023-07-31T03:44:07;19.40;72.00
38488;DHT22;57384;51.986;4.458;2023-07-31T03:46:35;19.50;72.00
38488;DHT22;57384;51.986;4.458;2023-07-31T03:49:02;19.50;72.00
38488;DHT22;57384;51.986;4.458;2023-07-31T03:51:28;19.40;72.10
38488;DHT22;57384;51.986;4.458;2023-07-31T03:53:55;19.40;72.10
38488;DHT22;57384;51.986;4.458;2023-07-31T03:56:22;19.40;72.10
38488;DHT22;57384;51.986;4.458;2023-07-31T03:58:48;19.40;72.20
38488;DHT22;57384;51.986;4.458;2023-07-31T04:01:15;19.40;72.20
38488;DHT22;57384;51.986;4.458;2023-07-31T04:03:42;19.40;72.30
38488;DHT22;57384;51.986;4.458;2023-07-31T04:06:08;19.40;72.40
38488;DHT22;57384;51.986;4.458;2023-07-31T04:08:35;19.40;72.90
38488;DHT22;57384;51.986;4.458;2023-07-31T04:11:03;19.40;72.40
38488;DHT22;57384;51.986;4.458;2023-07-31T04:13:30;19.40;72.70
38488;DHT22;57384;51.986;4.458;2023-07-31T04:15:57;19.40;72.70
38488;DHT22;57384;51.986;4.458;2023-07-31T04:18:26;19.40;72.70
38488;DHT22;57384;51.986;4.458;2023-07-31T04:20:53;19.40;72.70
38488;DHT22;57384;51.986;4.458;2023-07-31T04:23:19;19.40;73.30
38488;DHT22;57384;51.986;4.458;2023-07-31T04:25:46;19.40;72.70
38488;DHT22;57384;51.986;4.458;2023-07-31T04:28:15;19.40;72.80
38488;DHT22;57384;51.986;4.458;2023-07-31T04:30:41;19.30;72.90
38488;DHT22;57384;51.986;4.458;2023-07-31T04:33:09;19.30;72.90
38488;DHT22;57384;51.986;4.458;2023-07-31T04:35:36;19.30;73.00
38488;DHT22;57384;51.986;4.458;2023-07-31T04:38:02;19.40;72.90
38488;DHT22;57384;51.986;4.458;2023-07-31T04:40:29;19.30;72.90
38488;DHT22;57384;51.986;4.458;2023-07-31T04:42:56;19.40;72.90
38488;DHT22;57384;51.986;4.458;2023-07-31T04:45:26;19.30;72.80
38488;DHT22;57384;51.986;4.458;2023-07-31T04:47:53;19.30;72.80
38488;DHT22;57384;51.986;4.458;2023-07-31T04:50:19;19.30;72.90
38488;DHT22;57384;51.986;4.458;2023-07-31T04:52:48;19.30;72.90
38488;DHT22;57384;51.986;4.458;2023-07-31T04:55:15;19.30;72.90
38488;DHT22;57384;51.986;4.458;2023-07-31T04:57:41;19.30;72.90
38488;DHT22;57384;51.986;4.458;2023-07-31T05:00:11;19.30;72.90
38488;DHT22;57384;51.986;4.458;2023-07-31T05:02:37;19.30;73.00
38488;DHT22;57384;51.986;4.458;2023-07-31T05:05:05;19.20;73.00
38488;DHT22;57384;51.986;4.458;2023-07-31T05:07:34;19.20;73.00
38488;DHT22;57384;51.986;4.458;2023-07-31T05:10:05;19.20;73.10
38488;DHT22;57384;51.986;4.458;2023-07-31T05:12:31;19.20;73.10
38488;DHT22;57384;51.986;4.458;2023-07-31T05:15:01;19.20;73.10
38488;DHT22;57384;51.986;4.458;2023-07-31T05:17:30;19.20;73.20
38488;DHT22;57384;51.986;4.458;2023-07-31T05:19:59;19.20;73.40
38488;DHT22;57384;51.986;4.458;2023-07-31T05:22:26;19.20;73.30
38488;DHT22;57384;51.986;4.458;2023-07-31T05:24:53;19.10;73.30
38488;DHT22;57384;51.986;4.458;2023-07-31T05:27:20;19.20;73.30
38488;DHT22;57384;51.986;4.458;2023-07-31T05:29:48;19.20;73.40
38488;DHT22;57384;51.986;4.458;2023-07-31T05:32:15;19.20;73.50
38488;DHT22;57384;51.986;4.458;2023-07-31T05:34:42;19.20;73.50
38488;DHT22;57384;51.986;4.458;2023-07-31T05:37:10;19.20;73.50
38488;DHT22;57384;51.986;4.458;2023-07-31T05:39:37;19.20;73.70
38488;DHT22;57384;51.986;4.458;2023-07-31T05:42:04;19.20;73.70
38488;DHT22;57384;51.986;4.458;2023-07-31T05:44:32;19.20;73.60
38488;DHT22;57384;51.986;4.458;2023-07-31T05:46:59;19.20;73.70
38488;DHT22;57384;51.986;4.458;2023-07-31T05:49:27;19.20;73.60
38488;DHT22;57384;51.986;4.458;2023-07-31T05:51:54;19.20;73.70
38488;DHT22;57384;51.986;4.458;2023-07-31T05:54:22;19.20;73.60
38488;DHT22;57384;51.986;4.458;2023-07-31T05:56:49;19.20;73.70
38488;DHT22;57384;51.986;4.458;2023-07-31T05:59:16;19.20;73.70
38488;DHT22;57384;51.986;4.458;2023-07-31T06:01:42;19.10;73.70
38488;DHT22;57384;51.986;4.458;2023-07-31T06:04:09;19.20;73.80
38488;DHT22;57384;51.986;4.458;2023-07-31T06:06:37;19.20;73.90
38488;DHT22;57384;51.986;4.458;2023-07-31T06:09:04;19.20;74.10
38488;DHT22;57384;51.986;4.458;2023-07-31T06:11:31;19.20;74.10
38488;DHT22;57384;51.986;4.458;2023-07-31T06:14:03;19.20;74.10
38488;DHT22;57384;51.986;4.458;2023-07-31T06:16:31;19.20;74.20
38488;DHT22;57384;51.986;4.458;2023-07-31T06:18:57;19.20;74.30
38488;DHT22;57384;51.986;4.458;2023-07-31T06:21:25;19.20;74.30
38488;DHT22;57384;51.986;4.458;2023-07-31T06:23:52;19.30;74.50
38488;DHT22;57384;51.986;4.458;2023-07-31T06:26:18;19.30;74.40
38488;DHT22;57384;51.986;4.458;2023-07-31T06:28:45;19.30;74.30
38488;DHT22;57384;51.986;4.458;2023-07-31T06:31:12;19.30;74.40
38488;DHT22;57384;51.986;4.458;2023-07-31T06:33:41;19.30;74.50
38488;DHT22;57384;51.986;4.458;2023-07-31T06:36:10;19.30;74.50
38488;DHT22;57384;51.986;4.458;2023-07-31T06:38:39;19.30;74.50
38488;DHT22;57384;51.986;4.458;2023-07-31T06:41:06;19.30;74.70
38488;DHT22;57384;51.986;4.458;2023-07-31T06:43:32;19.30;74.60
38488;DHT22;57384;51.986;4.458;2023-07-31T06:46:05;19.30;74.60
38488;DHT22;57384;51.986;4.458;2023-07-31T06:48:33;19.40;74.90
38488;DHT22;57384;51.986;4.458;2023-07-31T06:51:03;19.40;74.80
38488;DHT22;57384;51.986;4.458;2023-07-31T06:53:30;19.40;74.30
38488;DHT22;57384;51.986;4.458;2023-07-31T06:55:57;19.40;74.50
38488;DHT22;57384;51.986;4.458;2023-07-31T06:58:25;19.30;74.60
38488;DHT22;57384;51.986;4.458;2023-07-31T07:00:53;19.40;74.80
38488;DHT22;57384;51.986;4.458;2023-07-31T07:03:20;19.40;74.90
38488;DHT22;57384;51.986;4.458;2023-07-31T07:05:47;19.40;75.00
38488;DHT22;57384;51.986;4.458;2023-07-31T07:08:13;19.40;75.00
38488;DHT22;57384;51.986;4.458;2023-07-31T07:10:41;19.40;75.00
38488;DHT22;57384;51.986;4.458;2023-07-31T07:13:09;19.40;75.20
38488;DHT22;57384;51.986;4.458;2023-07-31T07:15:38;19.50;75.30
38488;DHT22;57384;51.986;4.458;2023-07-31T07:18:04;19.50;75.30
38488;DHT22;57384;51.986;4.458;2023-07-31T07:20:32;19.50;75.90
38488;DHT22;57384;51.986;4.458;2023-07-31T07:22:59;19.50;75.10
38488;DHT22;57384;51.986;4.458;2023-07-31T07:25:25;19.50;75.00
38488;DHT22;57384;51.986;4.458;2023-07-31T07:27:52;19.50;75.10
38488;DHT22;57384;51.986;4.458;2023-07-31T07:30:18;19.60;75.20
38488;DHT22;57384;51.986;4.458;2023-07-31T07:32:45;19.60;75.40
38488;DHT22;57384;51.986;4.458;2023-07-31T07:35:12;19.60;75.40
38488;DHT22;57384;51.986;4.458;2023-07-31T07:37:38;19.60;75.40
38488;DHT22;57384;51.986;4.458;2023-07-31T07:40:06;19.60;75.40
38488;DHT22;57384;51.986;4.458;2023-07-31T07:42:33;19.60;75.40
38488;DHT22;57384;51.986;4.458;2023-07-31T07:45:01;19.60;75.60
38488;DHT22;57384;51.986;4.458;2023-07-31T07:47:30;19.70;75.70
38488;DHT22;57384;51.986;4.458;2023-07-31T07:49:56;19.70;75.80
38488;DHT22;57384;51.986;4.458;2023-07-31T07:52:23;19.70;75.70
38488;DHT22;57384;51.986;4.458;2023-07-31T07:54:49;19.70;75.70
38488;DHT22;57384;51.986;4.458;2023-07-31T07:57:17;19.70;75.70
38488;DHT22;57384;51.986;4.458;2023-07-31T07:59:45;19.80;75.70
38488;DHT22;57384;51.986;4.458;2023-07-31T08:02:12;19.80;75.80
38488;DHT22;57384;51.986;4.458;2023-07-31T08:04:39;19.80;75.80
38488;DHT22;57384;51.986;4.458;2023-07-31T08:07:05;19.80;75.60
38488;DHT22;57384;51.986;4.458;2023-07-31T08:09:33;19.90;75.70
38488;DHT22;57384;51.986;4.458;2023-07-31T08:12:06;19.90;75.70
38488;DHT22;57384;51.986;4.458;2023-07-31T08:17:11;19.90;75.60
38488;DHT22;57384;51.986;4.458;2023-07-31T08:19:37;19.90;75.60
38488;DHT22;57384;51.986;4.458;2023-07-31T08:22:04;20.00;75.70
38488;DHT22;57384;51.986;4.458;2023-07-31T08:24:31;20.00;75.60
38488;DHT22;57384;51.986;4.458;2023-07-31T08:26:59;20.00;75.60
38488;DHT22;57384;51.986;4.458;2023-07-31T08:29:25;20.00;75.60
38488;DHT22;57384;51.986;4.458;2023-07-31T08:31:53;20.00;75.60
38488;DHT22;57384;51.986;4.458;2023-07-31T08:34:20;20.00;75.60
38488;DHT22;57384;51.986;4.458;2023-07-31T08:36:47;20.00;75.60
38488;DHT22;57384;51.986;4.458;2023-07-31T08:39:14;20.10;75.70
38488;DHT22;57384;51.986;4.458;2023-07-31T08:41:42;20.10;75.80
38488;DHT22;57384;51.986;4.458;2023-07-31T08:44:10;20.10;75.90
38488;DHT22;57384;51.986;4.458;2023-07-31T08:46:40;20.10;76.00
38488;DHT22;57384;51.986;4.458;2023-07-31T08:49:09;20.10;75.70
38488;DHT22;57384;51.986;4.458;2023-07-31T08:51:36;20.10;75.70
38488;DHT22;57384;51.986;4.458;2023-07-31T08:54:03;20.20;75.90
38488;DHT22;57384;51.986;4.458;2023-07-31T08:56:32;20.20;75.80
38488;DHT22;57384;51.986;4.458;2023-07-31T08:59:02;20.20;75.80
38488;DHT22;57384;51.986;4.458;2023-07-31T09:01:30;20.20;75.90
38488;DHT22;57384;51.986;4.458;2023-07-31T09:04:01;20.20;76.10
38488;DHT22;57384;51.986;4.458;2023-07-31T09:06:30;20.20;75.80
38488;DHT22;57384;51.986;4.458;2023-07-31T09:08:58;20.30;76.50
38488;DHT22;57384;51.986;4.458;2023-07-31T09:11:25;20.30;76.00
38488;DHT22;57384;51.986;4.458;2023-07-31T09:13:52;20.30;76.00
38488;DHT22;57384;51.986;4.458;2023-07-31T09:16:27;20.30;75.90
38488;DHT22;57384;51.986;4.458;2023-07-31T09:18:56;20.30;76.00
38488;DHT22;57384;51.986;4.458;2023-07-31T09:21:23;20.40;76.00
38488;DHT22;57384;51.986;4.458;2023-07-31T09:23:51;20.40;76.10
38488;DHT22;57384;51.986;4.458;2023-07-31T09:26:36;20.40;76.10
38488;DHT22;57384;51.986;4.458;2023-07-31T09:29:05;20.40;76.20
38488;DHT22;57384;51.986;4.458;2023-07-31T09:31:40;20.40;76.00
38488;DHT22;57384;51.986;4.458;2023-07-31T09:34:08;20.50;76.20
38488;DHT22;57384;51.986;4.458;2023-07-31T09:36:49;20.40;75.90
38488;DHT22;57384;51.986;4.458;2023-07-31T09:39:17;20.50;76.10
38488;DHT22;57384;51.986;4.458;2023-07-31T09:41:47;20.50;75.90
38488;DHT22;57384;51.986;4.458;2023-07-31T09:44:14;20.50;75.90
38488;DHT22;57384;51.986;4.458;2023-07-31T09:46:41;20.50;75.90
38488;DHT22;57384;51.986;4.458;2023-07-31T09:49:10;20.50;75.90
38488;DHT22;57384;51.986;4.458;2023-07-31T09:51:38;20.50;76.00
38488;DHT22;57384;51.986;4.458;2023-07-31T09:54:15;20.60;75.90
38488;DHT22;57384;51.986;4.458;2023-07-31T09:56:48;20.60;76.10
38488;DHT22;57384;51.986;4.458;2023-07-31T09:59:17;20.60;76.00
38488;DHT22;57384;51.986;4.458;2023-07-31T10:01:46;20.60;76.00
38488;DHT22;57384;51.986;4.458;2023-07-31T10:04:13;20.60;76.10
38488;DHT22;57384;51.986;4.458;2023-07-31T10:06:42;20.60;76.20
38488;DHT22;57384;51.986;4.458;2023-07-31T10:09:16;20.60;76.20
38488;DHT22;57384;51.986;4.458;2023-07-31T10:11:54;20.70;76.10
38488;DHT22;57384;51.986;4.458;2023-07-31T10:14:22;20.70;76.40
38488;DHT22;57384;51.986;4.458;2023-07-31T10:16:51;20.70;76.20
38488;DHT22;57384;51.986;4.458;2023-07-31T10:19:19;20.80;76.30
38488;DHT22;57384;51.986;4.458;2023-07-31T10:21:53;20.80;76.40
38488;DHT22;57384;51.986;4.458;2023-07-31T10:24:20;20.90;76.30
38488;DHT22;57384;51.986;4.458;2023-07-31T10:26:47;20.90;75.80
38488;DHT22;57384;51.986;4.458;2023-07-31T10:29:15;20.90;75.80
38488;DHT22;57384;51.986;4.458;2023-07-31T10:31:44;21.00;76.00
38488;DHT22;57384;51.986;4.458;2023-07-31T10:34:14;21.00;76.10
38488;DHT22;57384;51.986;4.458;2023-07-31T10:36:45;21.10;76.10
38488;DHT22;57384;51.986;4.458;2023-07-31T10:39:35;21.10;76.10
38488;DHT22;57384;51.986;4.458;2023-07-31T10:42:13;21.20;76.30
38488;DHT22;57384;51.986;4.458;2023-07-31T10:44:47;21.20;76.20
38488;DHT22;57384;51.986;4.458;2023-07-31T10:47:15;21.20;76.10
38488;DHT22;57384;51.986;4.458;2023-07-31T10:49:45;21.30;75.90
38488;DHT22;57384;51.986;4.458;2023-07-31T10:52:13;21.30;75.90
38488;DHT22;57384;51.986;4.458;2023-07-31T10:54:40;21.30;75.80
38488;DHT22;57384;51.986;4.458;2023-07-31T10:57:22;21.30;75.80
38488;DHT22;57384;51.986;4.458;2023-07-31T10:59:50;21.40;75.80
38488;DHT22;57384;51.986;4.458;2023-07-31T11:02:29;21.40;75.60
38488;DHT22;57384;51.986;4.458;2023-07-31T11:05:09;21.40;75.70
38488;DHT22;57384;51.986;4.458;2023-07-31T11:07:49;21.50;75.70
38488;DHT22;57384;51.986;4.458;2023-07-31T11:10:17;21.50;75.60
38488;DHT22;57384;51.986;4.458;2023-07-31T11:12:45;21.50;75.50
38488;DHT22;57384;51.986;4.458;2023-07-31T11:15:13;21.50;75.60
38488;DHT22;57384;51.986;4.458;2023-07-31T11:17:39;21.60;75.60
38488;DHT22;57384;51.986;4.458;2023-07-31T11:20:06;21.50;75.50
38488;DHT22;57384;51.986;4.458;2023-07-31T11:22:35;21.60;75.60
38488;DHT22;57384;51.986;4.458;2023-07-31T11:25:05;21.60;75.70
38488;DHT22;57384;51.986;4.458;2023-07-31T11:27:39;21.70;75.80
38488;DHT22;57384;51.986;4.458;2023-07-31T11:30:06;21.70;75.80
38488;DHT22;57384;51.986;4.458;2023-07-31T11:32:32;21.70;75.60
38488;DHT22;57384;51.986;4.458;2023-07-31T11:35:00;21.80;75.50
38488;DHT22;57384;51.986;4.458;2023-07-31T11:37:43;21.80;75.40
38488;DHT22;57384;51.986;4.458;2023-07-31T11:40:11;21.80;75.50
38488;DHT22;57384;51.986;4.458;2023-07-31T11:42:39;21.90;75.30
38488;DHT22;57384;51.986;4.458;2023-07-31T11:45:08;21.90;75.30
38488;DHT22;57384;51.986;4.458;2023-07-31T11:47:37;22.00;75.40
38488;DHT22;57384;51.986;4.458;2023-07-31T11:50:11;22.00;75.40
38488;DHT22;57384;51.986;4.458;2023-07-31T11:52:44;22.00;75.30
38488;DHT22;57384;51.986;4.458;2023-07-31T11:55:12;22.00;75.20
38488;DHT22;57384;51.986;4.458;2023-07-31T11:57:40;22.00;75.00
38488;DHT22;57384;51.986;4.458;2023-07-31T12:00:09;22.10;75.10
38488;DHT22;57384;51.986;4.458;2023-07-31T12:02:37;22.10;75.00
38488;DHT22;57384;51.986;4.458;2023-07-31T12:05:04;22.20;75.00
38488;DHT22;57384;51.986;4.458;2023-07-31T12:07:48;22.10;74.60
38488;DHT22;57384;51.986;4.458;2023-07-31T12:10:32;22.10;74.90
38488;DHT22;57384;51.986;4.458;2023-07-31T12:13:01;22.20;75.00
38488;DHT22;57384;51.986;4.458;2023-07-31T12:15:37;22.20;75.00
38488;DHT22;57384;51.986;4.458;2023-07-31T12:20:35;22.20;75.00
38488;DHT22;57384;51.986;4.458;2023-07-31T12:23:19;22.30;75.00
38488;DHT22;57384;51.986;4.458;2023-07-31T12:25:46;22.30;75.00
38488;DHT22;57384;51.986;4.458;2023-07-31T12:28:14;22.40;74.90
38488;DHT22;57384;51.986;4.458;2023-07-31T12:30:42;22.40;74.80
38488;DHT22;57384;51.986;4.458;2023-07-31T12:33:15;22.40;74.80
38488;DHT22;57384;51.986;4.458;2023-07-31T12:35:45;22.40;74.80
38488;DHT22;57384;51.986;4.458;2023-07-31T12:38:13;22.50;74.80
38488;DHT22;57384;51.986;4.458;2023-07-31T12:40:46;22.50;74.70
38488;DHT22;57384;51.986;4.458;2023-07-31T12:43:13;22.50;74.70
38488;DHT22;57384;51.986;4.458;2023-07-31T12:45:40;22.60;74.60
38488;DHT22;57384;51.986;4.458;2023-07-31T12:48:06;22.60;74.60
38488;DHT22;57384;51.986;4.458;2023-07-31T12:50:34;22.60;74.50
38488;DHT22;57384;51.986;4.458;2023-07-31T12:53:00;22.60;74.40
38488;DHT22;57384;51.986;4.458;2023-07-31T12:55:28;22.60;74.40
38488;DHT22;57384;51.986;4.458;2023-07-31T12:57:55;22.70;74.50
38488;DHT22;57384;51.986;4.458;2023-07-31T13:00:22;22.70;74.60
38488;DHT22;57384;51.986;4.458;2023-07-31T13:02:50;22.70;74.40
38488;DHT22;57384;51.986;4.458;2023-07-31T13:05:16;22.70;74.40
38488;DHT22;57384;51.986;4.458;2023-07-31T13:07:44;22.70;74.30
38488;DHT22;57384;51.986;4.458;2023-07-31T13:10:10;22.80;74.40
38488;DHT22;57384;51.986;4.458;2023-07-31T13:12:41;22.70;74.30
38488;DHT22;57384;51.986;4.458;2023-07-31T13:15:09;22.70;74.40
38488;DHT22;57384;51.986;4.458;2023-07-31T13:17:36;22.70;74.30
38488;DHT22;57384;51.986;4.458;2023-07-31T13:20:02;22.70;74.30
38488;DHT22;57384;51.986;4.458;2023-07-31T13:22:29;22.70;74.30
38488;DHT22;57384;51.986;4.458;2023-07-31T13:24:56;22.80;74.30
38488;DHT22;57384;51.986;4.458;2023-07-31T13:27:28;22.70;74.30
38488;DHT22;57384;51.986;4.458;2023-07-31T13:30:01;22.70;74.30
38488;DHT22;57384;51.986;4.458;2023-07-31T13:32:29;22.80;74.30
38488;DHT22;57384;51.986;4.458;2023-07-31T13:34:56;22.80;74.30
38488;DHT22;57384;51.986;4.458;2023-07-31T13:37:25;22.80;74.20
38488;DHT22;57384;51.986;4.458;2023-07-31T13:39:52;22.70;74.10
38488;DHT22;57384;51.986;4.458;2023-07-31T13:42:24;22.80;74.10
38488;DHT22;57384;51.986;4.458;2023-07-31T13:44:51;22.80;74.20
38488;DHT22;57384;51.986;4.458;2023-07-31T13:47:17;22.80;74.10
38488;DHT22;57384;51.986;4.458;2023-07-31T13:49:45;22.80;74.10
38488;DHT22;57384;51.986;4.458;2023-07-31T13:52:11;22.90;74.20
38488;DHT22;57384;51.986;4.458;2023-07-31T13:54:38;22.90;74.20
38488;DHT22;57384;51.986;4.458;2023-07-31T13:57:05;22.90;74.20
38488;DHT22;57384;51.986;4.458;2023-07-31T13:59:32;22.90;74.20
38488;DHT22;57384;51.986;4.458;2023-07-31T14:02:00;22.90;74.20
38488;DHT22;57384;51.986;4.458;2023-07-31T14:04:27;22.90;74.30
38488;DHT22;57384;51.986;4.458;2023-07-31T14:07:00;22.90;74.30
38488;DHT22;57384;51.986;4.458;2023-07-31T14:09:26;22.90;74.30
38488;DHT22;57384;51.986;4.458;2023-07-31T14:11:54;22.90;74.30
38488;DHT22;57384;51.986;4.458;2023-07-31T14:14:21;22.90;74.30
38488;DHT22;57384;51.986;4.458;2023-07-31T14:16:49;22.80;74.20
38488;DHT22;57384;51.986;4.458;2023-07-31T14:19:17;22.90;74.30
38488;DHT22;57384;51.986;4.458;2023-07-31T14:21:44;22.90;74.20
38488;DHT22;57384;51.986;4.458;2023-07-31T14:24:11;22.80;74.10
38488;DHT22;57384;51.986;4.458;2023-07-31T14:26:39;22.90;74.20
38488;DHT22;57384;51.986;4.458;2023-07-31T14:29:05;22.80;74.10
38488;DHT22;57384;51.986;4.458;2023-07-31T14:31:33;22.80;74.10
38488;DHT22;57384;51.986;4.458;2023-07-31T14:34:01;22.80;74.10
38488;DHT22;57384;51.986;4.458;2023-07-31T14:36:33;22.80;74.10
38488;DHT22;57384;51.986;4.458;2023-07-31T14:39:01;22.80;74.10
38488;DHT22;57384;51.986;4.458;2023-07-31T14:41:28;22.80;74.10
38488;DHT22;57384;51.986;4.458;2023-07-31T14:43:56;22.80;74.10
38488;DHT22;57384;51.986;4.458;2023-07-31T14:46:24;22.80;74.20
38488;DHT22;57384;51.986;4.458;2023-07-31T14:48:51;22.70;74.10
38488;DHT22;57384;51.986;4.458;2023-07-31T14:51:17;22.70;74.10
38488;DHT22;57384;51.986;4.458;2023-07-31T14:53:44;22.70;74.20
38488;DHT22;57384;51.986;4.458;2023-07-31T14:56:10;22.70;74.20
38488;DHT22;57384;51.986;4.458;2023-07-31T14:58:39;22.70;74.20
38488;DHT22;57384;51.986;4.458;2023-07-31T15:01:08;22.60;74.20
38488;DHT22;57384;51.986;4.458;2023-07-31T15:03:34;22.60;74.30
38488;DHT22;57384;51.986;4.458;2023-07-31T15:06:00;22.60;74.20
38488;DHT22;57384;51.986;4.458;2023-07-31T15:08:27;22.60;74.20
38488;DHT22;57384;51.986;4.458;2023-07-31T15:10:55;22.60;74.30
38488;DHT22;57384;51.986;4.458;2023-07-31T15:13:23;22.50;74.30
38488;DHT22;57384;51.986;4.458;2023-07-31T15:15:49;22.50;74.30
38488;DHT22;57384;51.986;4.458;2023-07-31T15:18:17;22.50;74.50
38488;DHT22;57384;51.986;4.458;2023-07-31T15:20:43;22.50;74.50
38488;DHT22;57384;51.986;4.458;2023-07-31T15:23:11;22.50;74.40
38488;DHT22;57384;51.986;4.458;2023-07-31T15:25:39;22.40;74.40
38488;DHT22;57384;51.986;4.458;2023-07-31T15:28:05;22.40;74.40
38488;DHT22;57384;51.986;4.458;2023-07-31T15:30:33;22.40;74.60
38488;DHT22;57384;51.986;4.458;2023-07-31T15:33:01;22.30;74.40
38488;DHT22;57384;51.986;4.458;2023-07-31T15:35:29;22.30;74.50
38488;DHT22;57384;51.986;4.458;2023-07-31T15:37:56;22.30;74.60
38488;DHT22;57384;51.986;4.458;2023-07-31T15:40:22;22.30;74.60
38488;DHT22;57384;51.986;4.458;2023-07-31T15:42:49;22.30;74.60
38488;DHT22;57384;51.986;4.458;2023-07-31T15:45:17;22.30;74.60
38488;DHT22;57384;51.986;4.458;2023-07-31T15:47:45;22.20;74.60
38488;DHT22;57384;51.986;4.458;2023-07-31T15:50:12;22.20;74.60
38488;DHT22;57384;51.986;4.458;2023-07-31T15:52:39;22.20;74.60